sensor_id;sensor_type;location;lat;lon;timestamp;P1;durP1;ratioP1;P2;durP2;ratioP2
16922;SDS011;8578;50.938;13.556;2023-03-14T00:02:09;0.43;;;0.30;;
16922;SDS011;8578;50.938;13.556;2023-03-14T00:04:37;0.80;;;0.50;;
16922;SDS011;8578;50.938;13.556;2023-03-14T00:07:04;0.73;;;0.50;;
16922;SDS011;8578;50.938;13.556;2023-03-14T00:09:32;2.30;;;0.70;;
16922;SDS011;8578;50.938;13.556;2023-03-14T00:11:59;0.73;;;0.50;;
16922;SDS011;8578;50.938;13.556;2023-03-14T00:14:30;0.70;;;0.47;;
16922;SDS011;8578;50.938;13.556;2023-03-14T00:16:58;1.07;;;0.80;;
16922;SDS011;8578;50.938;13.556;2023-03-14T00:19:25;2.00;;;1.10;;
16922;SDS011;8578;50.938;13.556;2023-03-14T00:21:53;1.17;;;0.73;;
16922;SDS011;8578;50.938;13.556;2023-03-14T00:24:20;2.20;;;0.97;;
16922;SDS011;8578;50.938;13.556;2023-03-14T00:26:48;1.53;;;0.90;;
16922;SDS011;8578;50.938;13.556;2023-03-14T00:29:15;1.37;;;0.93;;
16922;SDS011;8578;50.938;13.556;2023-03-14T00:31:45;1.40;;;1.00;;
16922;SDS011;8578;50.938;13.556;2023-03-14T00:34:13;1.43;;;1.10;;
16922;SDS011;8578;50.938;13.556;2023-03-14T00:36:40;1.30;;;1.07;;
16922;SDS011;8578;50.938;13.556;2023-03-14T00:39:08;1.23;;;0.87;;
16922;SDS011;8578;50.938;13.556;2023-03-14T00:41:35;1.67;;;0.70;;
16922;SDS011;8578;50.938;13.556;2023-03-14T00:44:03;0.87;;;0.70;;
16922;SDS011;8578;50.938;13.556;2023-03-14T00:46:32;0.80;;;0.67;;
16922;SDS011;8578;50.938;13.556;2023-03-14T00:49:01;1.70;;;0.60;;
16922;SDS011;8578;50.938;13.556;2023-03-14T00:51:29;0.77;;;0.50;;
16922;SDS011;8578;50.938;13.556;2023-03-14T00:53:56;1.03;;;0.40;;
16922;SDS011;8578;50.938;13.556;2023-03-14T00:56:24;1.73;;;0.70;;
16922;SDS011;8578;50.938;13.556;2023-03-14T00:58:53;0.90;;;0.60;;
16922;SDS011;8578;50.938;13.556;2023-03-14T01:01:20;1.20;;;0.70;;
16922;SDS011;8578;50.938;13.556;2023-03-14T01:03:50;0.97;;;0.60;;
16922;SDS011;8578;50.938;13.556;2023-03-14T01:06:19;2.43;;;0.67;;
16922;SDS011;8578;50.938;13.556;2023-03-14T01:08:47;1.03;;;0.90;;
16922;SDS011;8578;50.938;13.556;2023-03-14T01:11:16;2.37;;;0.90;;
16922;SDS011;8578;50.938;13.556;2023-03-14T01:13:44;1.03;;;0.90;;
16922;SDS011;8578;50.938;13.556;2023-03-14T01:16:12;1.23;;;0.93;;
16922;SDS011;8578;50.938;13.556;2023-03-14T01:18:40;2.97;;;1.00;;
16922;SDS011;8578;50.938;13.556;2023-03-14T01:21:10;2.20;;;0.93;;
16922;SDS011;8578;50.938;13.556;2023-03-14T01:23:39;1.00;;;0.90;;
16922;SDS011;8578;50.938;13.556;2023-03-14T01:26:08;1.80;;;1.07;;
16922;SDS011;8578;50.938;13.556;2023-03-14T01:28:36;1.00;;;0.80;;
16922;SDS011;8578;50.938;13.556;2023-03-14T01:31:04;3.10;;;0.90;;
16922;SDS011;8578;50.938;13.556;2023-03-14T01:33:32;1.47;;;1.00;;
16922;SDS011;8578;50.938;13.556;2023-03-14T01:36:00;1.83;;;1.00;;
16922;SDS011;8578;50.938;13.556;2023-03-14T01:38:29;1.10;;;1.00;;
16922;SDS011;8578;50.938;13.556;2023-03-14T01:40:59;0.97;;;0.70;;
16922;SDS011;8578;50.938;13.556;2023-03-14T01:43:26;1.10;;;0.60;;
16922;SDS011;8578;50.938;13.556;2023-03-14T01:46:15;1.57;;;0.60;;
16922;SDS011;8578;50.938;13.556;2023-03-14T01:48:46;1.83;;;0.60;;
16922;SDS011;8578;50.938;13.556;2023-03-14T01:51:17;0.50;;;0.50;;
16922;SDS011;8578;50.938;13.556;2023-03-14T01:53:45;0.70;;;0.50;;
16922;SDS011;8578;50.938;13.556;2023-03-14T01:56:15;0.80;;;0.50;;
16922;SDS011;8578;50.938;13.556;2023-03-14T01:58:43;0.70;;;0.50;;
16922;SDS011;8578;50.938;13.556;2023-03-14T02:01:13;0.87;;;0.60;;
16922;SDS011;8578;50.938;13.556;2023-03-14T02:03:44;0.50;;;0.50;;
16922;SDS011;8578;50.938;13.556;2023-03-14T02:06:13;0.83;;;0.40;;
16922;SDS011;8578;50.938;13.556;2023-03-14T02:08:42;0.57;;;0.40;;
16922;SDS011;8578;50.938;13.556;2023-03-14T02:11:16;0.30;;;0.30;;
16922;SDS011;8578;50.938;13.556;2023-03-14T02:13:50;0.50;;;0.40;;
16922;SDS011;8578;50.938;13.556;2023-03-14T02:16:50;0.37;;;0.20;;
16922;SDS011;8578;50.938;13.556;2023-03-14T02:19:50;0.50;;;0.30;;
16922;SDS011;8578;50.938;13.556;2023-03-14T02:22:37;0.90;;;0.40;;
16922;SDS011;8578;50.938;13.556;2023-03-14T02:25:08;0.23;;;0.23;;
16922;SDS011;8578;50.938;13.556;2023-03-14T02:27:39;0.20;;;0.20;;
16922;SDS011;8578;50.938;13.556;2023-03-14T02:30:08;0.17;;;0.10;;
16922;SDS011;8578;50.938;13.556;2023-03-14T02:32:38;0.20;;;0.20;;
16922;SDS011;8578;50.938;13.556;2023-03-14T02:35:08;0.40;;;0.30;;
16922;SDS011;8578;50.938;13.556;2023-03-14T02:37:38;1.60;;;0.23;;
16922;SDS011;8578;50.938;13.556;2023-03-14T02:40:08;0.57;;;0.10;;
16922;SDS011;8578;50.938;13.556;2023-03-14T02:42:38;0.10;;;0.10;;
16922;SDS011;8578;50.938;13.556;2023-03-14T02:47:53;0.17;;;0.17;;
16922;SDS011;8578;50.938;13.556;2023-03-14T02:50:24;0.30;;;0.10;;
16922;SDS011;8578;50.938;13.556;2023-03-14T02:52:53;0.30;;;0.10;;
16922;SDS011;8578;50.938;13.556;2023-03-14T02:55:21;0.57;;;0.10;;
16922;SDS011;8578;50.938;13.556;2023-03-14T02:57:51;0.20;;;0.10;;
16922;SDS011;8578;50.938;13.556;2023-03-14T03:00:19;0.13;;;0.13;;
16922;SDS011;8578;50.938;13.556;2023-03-14T03:02:47;0.03;;;0.03;;
16922;SDS011;8578;50.938;13.556;2023-03-14T03:05:16;0.10;;;0.10;;
16922;SDS011;8578;50.938;13.556;2023-03-14T03:07:43;0.50;;;0.20;;
16922;SDS011;8578;50.938;13.556;2023-03-14T03:10:11;0.20;;;0.20;;
16922;SDS011;8578;50.938;13.556;2023-03-14T03:12:39;0.10;;;0.10;;
16922;SDS011;8578;50.938;13.556;2023-03-14T03:15:07;0.20;;;0.20;;
16922;SDS011;8578;50.938;13.556;2023-03-14T03:17:36;0.40;;;0.10;;
16922;SDS011;8578;50.938;13.556;2023-03-14T03:20:05;0.20;;;0.13;;
16922;SDS011;8578;50.938;13.556;2023-03-14T03:22:39;0.97;;;0.30;;
16922;SDS011;8578;50.938;13.556;2023-03-14T03:25:09;0.20;;;0.20;;
16922;SDS011;8578;50.938;13.556;2023-03-14T03:27:37;0.10;;;0.10;;
16922;SDS011;8578;50.938;13.556;2023-03-14T03:30:06;0.20;;;0.20;;
16922;SDS011;8578;50.938;13.556;2023-03-14T03:32:36;0.40;;;0.10;;
16922;SDS011;8578;50.938;13.556;2023-03-14T03:35:04;0.47;;;0.13;;
16922;SDS011;8578;50.938;13.556;2023-03-14T03:37:36;0.20;;;0.10;;
16922;SDS011;8578;50.938;13.556;2023-03-14T03:40:07;0.27;;;0.20;;
16922;SDS011;8578;50.938;13.556;2023-03-14T03:42:35;0.10;;;0.10;;
16922;SDS011;8578;50.938;13.556;2023-03-14T03:45:06;0.17;;;0.10;;
16922;SDS011;8578;50.938;13.556;2023-03-14T03:47:38;0.10;;;0.10;;
16922;SDS011;8578;50.938;13.556;2023-03-14T03:50:07;0.17;;;0.10;;
16922;SDS011;8578;50.938;13.556;2023-03-14T03:52:34;0.20;;;0.10;;
16922;SDS011;8578;50.938;13.556;2023-03-14T03:55:02;0.10;;;0.10;;
16922;SDS011;8578;50.938;13.556;2023-03-14T03:57:31;0.83;;;0.20;;
16922;SDS011;8578;50.938;13.556;2023-03-14T03:59:58;0.60;;;0.23;;
16922;SDS011;8578;50.938;13.556;2023-03-14T04:02:26;0.40;;;0.20;;
16922;SDS011;8578;50.938;13.556;2023-03-14T04:04:55;0.20;;;0.20;;
16922;SDS011;8578;50.938;13.556;2023-03-14T04:07:22;0.30;;;0.20;;
16922;SDS011;8578;50.938;13.556;2023-03-14T04:09:50;0.60;;;0.20;;
16922;SDS011;8578;50.938;13.556;2023-03-14T04:12:37;0.10;;;0.10;;
16922;SDS011;8578;50.938;13.556;2023-03-14T04:15:09;0.60;;;0.20;;
16922;SDS011;8578;50.938;13.556;2023-03-14T04:17:40;0.70;;;0.20;;
16922;SDS011;8578;50.938;13.556;2023-03-14T04:20:09;0.20;;;0.10;;
16922;SDS011;8578;50.938;13.556;2023-03-14T04:22:38;0.80;;;0.20;;
16922;SDS011;8578;50.938;13.556;2023-03-14T04:25:09;0.63;;;0.20;;
16922;SDS011;8578;50.938;13.556;2023-03-14T04:27:42;0.40;;;0.37;;
16922;SDS011;8578;50.938;13.556;2023-03-14T04:30:17;0.40;;;0.27;;
16922;SDS011;8578;50.938;13.556;2023-03-14T04:32:57;0.20;;;0.10;;
16922;SDS011;8578;50.938;13.556;2023-03-14T04:35:26;0.23;;;0.20;;
16922;SDS011;8578;50.938;13.556;2023-03-14T04:37:58;0.40;;;0.20;;
16922;SDS011;8578;50.938;13.556;2023-03-14T04:40:27;0.10;;;0.10;;
16922;SDS011;8578;50.938;13.556;2023-03-14T04:43:03;0.40;;;0.20;;
16922;SDS011;8578;50.938;13.556;2023-03-14T04:45:31;0.53;;;0.30;;
16922;SDS011;8578;50.938;13.556;2023-03-14T04:48:01;1.77;;;0.30;;
16922;SDS011;8578;50.938;13.556;2023-03-14T04:50:29;1.03;;;0.40;;
16922;SDS011;8578;50.938;13.556;2023-03-14T04:52:56;0.43;;;0.30;;
16922;SDS011;8578;50.938;13.556;2023-03-14T04:55:24;2.37;;;0.30;;
16922;SDS011;8578;50.938;13.556;2023-03-14T04:57:54;0.83;;;0.30;;
16922;SDS011;8578;50.938;13.556;2023-03-14T05:00:23;1.17;;;0.30;;
16922;SDS011;8578;50.938;13.556;2023-03-14T05:03:22;0.40;;;0.30;;
16922;SDS011;8578;50.938;13.556;2023-03-14T05:06:12;0.67;;;0.20;;
16922;SDS011;8578;50.938;13.556;2023-03-14T05:09:01;1.57;;;0.37;;
16922;SDS011;8578;50.938;13.556;2023-03-14T05:11:31;1.03;;;0.23;;
16922;SDS011;8578;50.938;13.556;2023-03-14T05:14:13;3.37;;;0.60;;
16922;SDS011;8578;50.938;13.556;2023-03-14T05:17:05;1.17;;;0.40;;
16922;SDS011;8578;50.938;13.556;2023-03-14T05:19:39;3.73;;;0.40;;
16922;SDS011;8578;50.938;13.556;2023-03-14T05:22:25;3.13;;;0.33;;
16922;SDS011;8578;50.938;13.556;2023-03-14T05:25:11;3.00;;;0.37;;
16922;SDS011;8578;50.938;13.556;2023-03-14T05:28:08;1.83;;;0.43;;
16922;SDS011;8578;50.938;13.556;2023-03-14T05:30:58;4.93;;;1.33;;
16922;SDS011;8578;50.938;13.556;2023-03-14T05:33:46;0.50;;;0.30;;
16922;SDS011;8578;50.938;13.556;2023-03-14T05:36:27;4.23;;;0.60;;
16922;SDS011;8578;50.938;13.556;2023-03-14T05:39:03;1.63;;;0.20;;
16922;SDS011;8578;50.938;13.556;2023-03-14T05:41:59;2.50;;;0.50;;
16922;SDS011;8578;50.938;13.556;2023-03-14T05:44:53;3.33;;;0.53;;
16922;SDS011;8578;50.938;13.556;2023-03-14T05:47:50;2.47;;;0.93;;
16922;SDS011;8578;50.938;13.556;2023-03-14T05:50:33;0.40;;;0.40;;
16922;SDS011;8578;50.938;13.556;2023-03-14T05:53:19;2.60;;;0.40;;
16922;SDS011;8578;50.938;13.556;2023-03-14T05:55:57;4.70;;;0.43;;
16922;SDS011;8578;50.938;13.556;2023-03-14T05:58:44;2.57;;;0.40;;
16922;SDS011;8578;50.938;13.556;2023-03-14T06:01:37;3.40;;;0.30;;
16922;SDS011;8578;50.938;13.556;2023-03-14T06:04:10;4.23;;;0.50;;
16922;SDS011;8578;50.938;13.556;2023-03-14T06:06:40;1.90;;;0.50;;
16922;SDS011;8578;50.938;13.556;2023-03-14T06:09:09;2.40;;;0.50;;
16922;SDS011;8578;50.938;13.556;2023-03-14T06:11:40;1.90;;;0.30;;
16922;SDS011;8578;50.938;13.556;2023-03-14T06:14:07;1.60;;;0.67;;
16922;SDS011;8578;50.938;13.556;2023-03-14T06:16:38;2.47;;;0.50;;
16922;SDS011;8578;50.938;13.556;2023-03-14T06:19:05;4.00;;;0.70;;
16922;SDS011;8578;50.938;13.556;2023-03-14T06:21:33;1.23;;;0.40;;
16922;SDS011;8578;50.938;13.556;2023-03-14T06:24:02;6.03;;;0.40;;
16922;SDS011;8578;50.938;13.556;2023-03-14T06:26:32;4.77;;;0.63;;
16922;SDS011;8578;50.938;13.556;2023-03-14T06:29:00;2.43;;;0.60;;
16922;SDS011;8578;50.938;13.556;2023-03-14T06:31:29;2.47;;;0.60;;
16922;SDS011;8578;50.938;13.556;2023-03-14T06:34:00;3.83;;;0.50;;
16922;SDS011;8578;50.938;13.556;2023-03-14T06:36:30;3.00;;;0.60;;
16922;SDS011;8578;50.938;13.556;2023-03-14T06:38:58;2.33;;;0.70;;
16922;SDS011;8578;50.938;13.556;2023-03-14T06:41:29;1.90;;;0.40;;
16922;SDS011;8578;50.938;13.556;2023-03-14T06:43:57;1.87;;;0.67;;
16922;SDS011;8578;50.938;13.556;2023-03-14T06:46:25;2.63;;;0.50;;
16922;SDS011;8578;50.938;13.556;2023-03-14T06:48:53;1.57;;;0.67;;
16922;SDS011;8578;50.938;13.556;2023-03-14T06:51:20;2.30;;;0.47;;
16922;SDS011;8578;50.938;13.556;2023-03-14T06:53:49;1.90;;;0.50;;
16922;SDS011;8578;50.938;13.556;2023-03-14T06:56:20;1.07;;;0.40;;
16922;SDS011;8578;50.938;13.556;2023-03-14T06:58:48;2.97;;;0.60;;
16922;SDS011;8578;50.938;13.556;2023-03-14T07:01:20;2.43;;;0.60;;
16922;SDS011;8578;50.938;13.556;2023-03-14T07:03:49;1.17;;;0.40;;
16922;SDS011;8578;50.938;13.556;2023-03-14T07:06:17;1.00;;;0.50;;
16922;SDS011;8578;50.938;13.556;2023-03-14T07:08:44;1.70;;;0.40;;
16922;SDS011;8578;50.938;13.556;2023-03-14T07:11:14;0.97;;;0.40;;
16922;SDS011;8578;50.938;13.556;2023-03-14T07:13:42;3.53;;;0.43;;
16922;SDS011;8578;50.938;13.556;2023-03-14T07:16:11;3.20;;;0.70;;
16922;SDS011;8578;50.938;13.556;2023-03-14T07:18:39;3.40;;;0.83;;
16922;SDS011;8578;50.938;13.556;2023-03-14T07:21:06;0.40;;;0.40;;
16922;SDS011;8578;50.938;13.556;2023-03-14T07:23:36;2.10;;;0.50;;
16922;SDS011;8578;50.938;13.556;2023-03-14T07:26:05;1.03;;;0.47;;
16922;SDS011;8578;50.938;13.556;2023-03-14T07:28:35;2.03;;;0.30;;
16922;SDS011;8578;50.938;13.556;2023-03-14T07:31:11;1.10;;;0.53;;
16922;SDS011;8578;50.938;13.556;2023-03-14T07:33:39;0.57;;;0.40;;
16922;SDS011;8578;50.938;13.556;2023-03-14T07:36:07;2.50;;;0.60;;
16922;SDS011;8578;50.938;13.556;2023-03-14T07:38:35;1.90;;;0.53;;
16922;SDS011;8578;50.938;13.556;2023-03-14T07:41:22;1.23;;;0.43;;
16922;SDS011;8578;50.938;13.556;2023-03-14T07:44:08;1.03;;;0.30;;
16922;SDS011;8578;50.938;13.556;2023-03-14T07:46:37;0.80;;;0.30;;
16922;SDS011;8578;50.938;13.556;2023-03-14T07:49:05;1.90;;;0.47;;
16922;SDS011;8578;50.938;13.556;2023-03-14T07:51:32;1.03;;;0.30;;
16922;SDS011;8578;50.938;13.556;2023-03-14T07:54:00;0.80;;;0.30;;
16922;SDS011;8578;50.938;13.556;2023-03-14T07:56:27;3.03;;;0.50;;
16922;SDS011;8578;50.938;13.556;2023-03-14T07:58:55;1.17;;;0.40;;
16922;SDS011;8578;50.938;13.556;2023-03-14T08:01:22;3.50;;;0.70;;
16922;SDS011;8578;50.938;13.556;2023-03-14T08:03:51;1.43;;;0.33;;
16922;SDS011;8578;50.938;13.556;2023-03-14T08:06:19;2.60;;;0.30;;
16922;SDS011;8578;50.938;13.556;2023-03-14T08:08:46;0.10;;;0.10;;
16922;SDS011;8578;50.938;13.556;2023-03-14T08:11:13;0.73;;;0.10;;
16922;SDS011;8578;50.938;13.556;2023-03-14T08:13:41;1.47;;;0.30;;
16922;SDS011;8578;50.938;13.556;2023-03-14T08:16:15;1.23;;;0.30;;
16922;SDS011;8578;50.938;13.556;2023-03-14T08:18:43;0.87;;;0.20;;
16922;SDS011;8578;50.938;13.556;2023-03-14T08:21:12;1.83;;;0.33;;
16922;SDS011;8578;50.938;13.556;2023-03-14T08:23:40;3.07;;;0.50;;
16922;SDS011;8578;50.938;13.556;2023-03-14T08:26:07;0.40;;;0.20;;
16922;SDS011;8578;50.938;13.556;2023-03-14T08:28:35;1.07;;;0.37;;
16922;SDS011;8578;50.938;13.556;2023-03-14T08:31:02;0.27;;;0.27;;
16922;SDS011;8578;50.938;13.556;2023-03-14T08:33:30;1.63;;;0.30;;
16922;SDS011;8578;50.938;13.556;2023-03-14T08:35:58;2.30;;;0.30;;
16922;SDS011;8578;50.938;13.556;2023-03-14T08:38:27;0.73;;;0.50;;
16922;SDS011;8578;50.938;13.556;2023-03-14T08:40:55;3.43;;;0.30;;
16922;SDS011;8578;50.938;13.556;2023-03-14T08:43:23;1.57;;;0.37;;
16922;SDS011;8578;50.938;13.556;2023-03-14T08:45:50;1.13;;;0.37;;
16922;SDS011;8578;50.938;13.556;2023-03-14T08:48:17;2.83;;;0.40;;
16922;SDS011;8578;50.938;13.556;2023-03-14T08:50:45;1.20;;;0.50;;
16922;SDS011;8578;50.938;13.556;2023-03-14T08:53:13;1.50;;;0.43;;
16922;SDS011;8578;50.938;13.556;2023-03-14T08:55:41;1.70;;;0.37;;
16922;SDS011;8578;50.938;13.556;2023-03-14T08:58:09;3.60;;;0.50;;
16922;SDS011;8578;50.938;13.556;2023-03-14T09:00:36;2.03;;;0.43;;
16922;SDS011;8578;50.938;13.556;2023-03-14T09:03:04;2.90;;;1.53;;
16922;SDS011;8578;50.938;13.556;2023-03-14T09:05:32;6.00;;;2.07;;
16922;SDS011;8578;50.938;13.556;2023-03-14T09:08:00;2.33;;;0.70;;
16922;SDS011;8578;50.938;13.556;2023-03-14T09:10:27;1.20;;;0.50;;
16922;SDS011;8578;50.938;13.556;2023-03-14T09:12:56;0.40;;;0.27;;
16922;SDS011;8578;50.938;13.556;2023-03-14T09:15:24;2.30;;;0.50;;
16922;SDS011;8578;50.938;13.556;2023-03-14T09:17:51;0.60;;;0.30;;
16922;SDS011;8578;50.938;13.556;2023-03-14T09:20:19;1.20;;;0.30;;
16922;SDS011;8578;50.938;13.556;2023-03-14T09:22:47;0.63;;;0.30;;
16922;SDS011;8578;50.938;13.556;2023-03-14T09:25:14;1.70;;;0.20;;
16922;SDS011;8578;50.938;13.556;2023-03-14T09:27:42;1.50;;;0.23;;
16922;SDS011;8578;50.938;13.556;2023-03-14T09:30:11;0.30;;;0.20;;
16922;SDS011;8578;50.938;13.556;2023-03-14T09:32:38;1.90;;;0.30;;
16922;SDS011;8578;50.938;13.556;2023-03-14T09:35:06;1.20;;;0.40;;
16922;SDS011;8578;50.938;13.556;2023-03-14T09:37:33;0.40;;;0.20;;
16922;SDS011;8578;50.938;13.556;2023-03-14T09:40:01;0.93;;;0.10;;
16922;SDS011;8578;50.938;13.556;2023-03-14T09:42:36;1.33;;;0.33;;
16922;SDS011;8578;50.938;13.556;2023-03-14T09:45:04;0.10;;;0.10;;
16922;SDS011;8578;50.938;13.556;2023-03-14T09:47:34;1.53;;;0.27;;
16922;SDS011;8578;50.938;13.556;2023-03-14T09:50:12;1.60;;;0.30;;
16922;SDS011;8578;50.938;13.556;2023-03-14T09:52:40;1.63;;;0.20;;
16922;SDS011;8578;50.938;13.556;2023-03-14T09:55:10;0.53;;;0.20;;
16922;SDS011;8578;50.938;13.556;2023-03-14T09:57:39;0.20;;;0.20;;
16922;SDS011;8578;50.938;13.556;2023-03-14T10:00:10;0.63;;;0.23;;
16922;SDS011;8578;50.938;13.556;2023-03-14T10:02:43;0.83;;;0.20;;
16922;SDS011;8578;50.938;13.556;2023-03-14T10:05:13;1.00;;;0.40;;
16922;SDS011;8578;50.938;13.556;2023-03-14T10:07:41;0.80;;;0.20;;
16922;SDS011;8578;50.938;13.556;2023-03-14T10:10:10;1.73;;;0.30;;
16922;SDS011;8578;50.938;13.556;2023-03-14T10:12:37;0.20;;;0.13;;
16922;SDS011;8578;50.938;13.556;2023-03-14T10:15:06;1.00;;;0.30;;
16922;SDS011;8578;50.938;13.556;2023-03-14T10:17:38;0.60;;;0.20;;
16922;SDS011;8578;50.938;13.556;2023-03-14T10:20:15;1.43;;;0.20;;
16922;SDS011;8578;50.938;13.556;2023-03-14T10:22:53;0.27;;;0.10;;
16922;SDS011;8578;50.938;13.556;2023-03-14T10:25:25;0.10;;;0.10;;
16922;SDS011;8578;50.938;13.556;2023-03-14T10:27:53;0.77;;;0.30;;
16922;SDS011;8578;50.938;13.556;2023-03-14T10:30:27;0.43;;;0.20;;
16922;SDS011;8578;50.938;13.556;2023-03-14T10:32:56;1.60;;;0.23;;
16922;SDS011;8578;50.938;13.556;2023-03-14T10:35:25;1.10;;;0.30;;
16922;SDS011;8578;50.938;13.556;2023-03-14T10:37:53;2.30;;;0.17;;
16922;SDS011;8578;50.938;13.556;2023-03-14T10:40:24;0.80;;;0.20;;
16922;SDS011;8578;50.938;13.556;2023-03-14T10:42:52;1.33;;;0.20;;
16922;SDS011;8578;50.938;13.556;2023-03-14T10:45:28;0.33;;;0.10;;
16922;SDS011;8578;50.938;13.556;2023-03-14T10:47:56;0.17;;;0.10;;
16922;SDS011;8578;50.938;13.556;2023-03-14T10:50:29;0.53;;;0.23;;
16922;SDS011;8578;50.938;13.556;2023-03-14T10:52:57;0.33;;;0.13;;
16922;SDS011;8578;50.938;13.556;2023-03-14T10:55:39;0.40;;;0.20;;
16922;SDS011;8578;50.938;13.556;2023-03-14T10:58:17;0.80;;;0.20;;
16922;SDS011;8578;50.938;13.556;2023-03-14T11:00:44;0.93;;;0.30;;
16922;SDS011;8578;50.938;13.556;2023-03-14T11:03:13;1.13;;;0.20;;
16922;SDS011;8578;50.938;13.556;2023-03-14T11:05:43;0.63;;;0.30;;
16922;SDS011;8578;50.938;13.556;2023-03-14T11:08:15;0.63;;;0.20;;
16922;SDS011;8578;50.938;13.556;2023-03-14T11:10:45;4.37;;;0.40;;
16922;SDS011;8578;50.938;13.556;2023-03-14T11:13:15;0.10;;;0.10;;
16922;SDS011;8578;50.938;13.556;2023-03-14T11:15:46;1.00;;;0.30;;
16922;SDS011;8578;50.938;13.556;2023-03-14T11:18:22;1.23;;;0.30;;
16922;SDS011;8578;50.938;13.556;2023-03-14T11:20:57;0.80;;;0.30;;
16922;SDS011;8578;50.938;13.556;2023-03-14T11:23:27;0.53;;;0.23;;
16922;SDS011;8578;50.938;13.556;2023-03-14T11:25:59;0.50;;;0.27;;
16922;SDS011;8578;50.938;13.556;2023-03-14T11:28:29;1.47;;;0.30;;
16922;SDS011;8578;50.938;13.556;2023-03-14T11:31:03;1.90;;;0.30;;
16922;SDS011;8578;50.938;13.556;2023-03-14T11:33:34;0.53;;;0.40;;
16922;SDS011;8578;50.938;13.556;2023-03-14T11:36:05;1.33;;;0.20;;
16922;SDS011;8578;50.938;13.556;2023-03-14T11:38:34;1.03;;;0.27;;
16922;SDS011;8578;50.938;13.556;2023-03-14T11:41:04;1.30;;;0.30;;
16922;SDS011;8578;50.938;13.556;2023-03-14T11:43:37;0.80;;;0.47;;
16922;SDS011;8578;50.938;13.556;2023-03-14T11:46:09;0.77;;;0.30;;
16922;SDS011;8578;50.938;13.556;2023-03-14T11:48:39;0.60;;;0.20;;
16922;SDS011;8578;50.938;13.556;2023-03-14T11:51:11;0.63;;;0.23;;
16922;SDS011;8578;50.938;13.556;2023-03-14T11:53:42;0.30;;;0.20;;
16922;SDS011;8578;50.938;13.556;2023-03-14T11:56:11;0.60;;;0.20;;
16922;SDS011;8578;50.938;13.556;2023-03-14T11:58:40;0.97;;;0.30;;
16922;SDS011;8578;50.938;13.556;2023-03-14T12:01:10;0.20;;;0.20;;
16922;SDS011;8578;50.938;13.556;2023-03-14T12:03:40;2.07;;;0.30;;
16922;SDS011;8578;50.938;13.556;2023-03-14T12:06:14;2.03;;;0.50;;
16922;SDS011;8578;50.938;13.556;2023-03-14T12:08:44;1.73;;;0.30;;
16922;SDS011;8578;50.938;13.556;2023-03-14T12:11:15;1.13;;;0.40;;
16922;SDS011;8578;50.938;13.556;2023-03-14T12:13:45;2.80;;;0.23;;
16922;SDS011;8578;50.938;13.556;2023-03-14T12:16:27;0.67;;;0.20;;
16922;SDS011;8578;50.938;13.556;2023-03-14T12:18:54;0.67;;;0.67;;
16922;SDS011;8578;50.938;13.556;2023-03-14T12:21:24;0.67;;;0.23;;
16922;SDS011;8578;50.938;13.556;2023-03-14T12:23:55;1.87;;;0.30;;
16922;SDS011;8578;50.938;13.556;2023-03-14T12:26:23;0.63;;;0.20;;
16922;SDS011;8578;50.938;13.556;2023-03-14T12:28:52;1.23;;;0.20;;
16922;SDS011;8578;50.938;13.556;2023-03-14T12:31:36;0.30;;;0.20;;
16922;SDS011;8578;50.938;13.556;2023-03-14T12:34:03;0.90;;;0.20;;
16922;SDS011;8578;50.938;13.556;2023-03-14T12:39:19;1.53;;;0.10;;
16922;SDS011;8578;50.938;13.556;2023-03-14T12:41:48;2.13;;;0.27;;
16922;SDS011;8578;50.938;13.556;2023-03-14T12:44:38;0.10;;;0.10;;
16922;SDS011;8578;50.938;13.556;2023-03-14T12:50:07;0.10;;;0.10;;
16922;SDS011;8578;50.938;13.556;2023-03-14T12:52:41;0.10;;;0.10;;
16922;SDS011;8578;50.938;13.556;2023-03-14T12:55:16;1.27;;;0.20;;
16922;SDS011;8578;50.938;13.556;2023-03-14T12:57:48;0.30;;;0.10;;
16922;SDS011;8578;50.938;13.556;2023-03-14T13:00:19;0.87;;;0.10;;
16922;SDS011;8578;50.938;13.556;2023-03-14T13:02:47;0.10;;;0.10;;
16922;SDS011;8578;50.938;13.556;2023-03-14T13:05:16;0.50;;;0.20;;
16922;SDS011;8578;50.938;13.556;2023-03-14T13:08:04;0.77;;;0.13;;
16922;SDS011;8578;50.938;13.556;2023-03-14T13:10:39;0.37;;;0.10;;
16922;SDS011;8578;50.938;13.556;2023-03-14T13:13:13;1.03;;;0.30;;
16922;SDS011;8578;50.938;13.556;2023-03-14T13:15:43;0.53;;;0.30;;
16922;SDS011;8578;50.938;13.556;2023-03-14T13:18:11;0.73;;;0.30;;
16922;SDS011;8578;50.938;13.556;2023-03-14T13:20:40;0.10;;;0.10;;
16922;SDS011;8578;50.938;13.556;2023-03-14T13:23:18;0.37;;;0.10;;
16922;SDS011;8578;50.938;13.556;2023-03-14T13:25:47;0.20;;;0.20;;
16922;SDS011;8578;50.938;13.556;2023-03-14T13:28:15;0.37;;;0.20;;
16922;SDS011;8578;50.938;13.556;2023-03-14T13:30:43;0.30;;;0.20;;
16922;SDS011;8578;50.938;13.556;2023-03-14T13:33:12;0.33;;;0.20;;
16922;SDS011;8578;50.938;13.556;2023-03-14T13:35:40;0.40;;;0.10;;
16922;SDS011;8578;50.938;13.556;2023-03-14T13:38:18;0.80;;;0.20;;
16922;SDS011;8578;50.938;13.556;2023-03-14T13:40:48;0.20;;;0.10;;
16922;SDS011;8578;50.938;13.556;2023-03-14T13:43:17;0.20;;;0.10;;
16922;SDS011;8578;50.938;13.556;2023-03-14T13:45:48;0.50;;;0.20;;
16922;SDS011;8578;50.938;13.556;2023-03-14T13:48:16;0.47;;;0.10;;
16922;SDS011;8578;50.938;13.556;2023-03-14T13:50:45;0.00;;;0.00;;
16922;SDS011;8578;50.938;13.556;2023-03-14T13:53:13;1.00;;;0.37;;
16922;SDS011;8578;50.938;13.556;2023-03-14T13:55:40;0.30;;;0.30;;
16922;SDS011;8578;50.938;13.556;2023-03-14T13:58:12;0.23;;;0.20;;
16922;SDS011;8578;50.938;13.556;2023-03-14T14:00:40;0.37;;;0.13;;
16922;SDS011;8578;50.938;13.556;2023-03-14T14:03:08;0.10;;;0.10;;
16922;SDS011;8578;50.938;13.556;2023-03-14T14:05:37;0.97;;;0.30;;
16922;SDS011;8578;50.938;13.556;2023-03-14T14:08:10;0.87;;;0.30;;
16922;SDS011;8578;50.938;13.556;2023-03-14T14:10:38;0.10;;;0.10;;
16922;SDS011;8578;50.938;13.556;2023-03-14T14:13:08;0.27;;;0.10;;
16922;SDS011;8578;50.938;13.556;2023-03-14T14:15:40;0.00;;;0.00;;
16922;SDS011;8578;50.938;13.556;2023-03-14T14:18:09;1.13;;;0.10;;
16922;SDS011;8578;50.938;13.556;2023-03-14T14:20:39;1.17;;;0.10;;
16922;SDS011;8578;50.938;13.556;2023-03-14T14:23:09;0.17;;;0.17;;
16922;SDS011;8578;50.938;13.556;2023-03-14T14:25:37;0.60;;;0.10;;
16922;SDS011;8578;50.938;13.556;2023-03-14T14:28:14;0.40;;;0.30;;
16922;SDS011;8578;50.938;13.556;2023-03-14T14:30:43;0.20;;;0.10;;
16922;SDS011;8578;50.938;13.556;2023-03-14T14:33:15;0.10;;;0.10;;
16922;SDS011;8578;50.938;13.556;2023-03-14T14:35:49;0.40;;;0.10;;
16922;SDS011;8578;50.938;13.556;2023-03-14T14:38:17;0.47;;;0.13;;
16922;SDS011;8578;50.938;13.556;2023-03-14T14:40:48;0.10;;;0.10;;
16922;SDS011;8578;50.938;13.556;2023-03-14T14:43:17;1.40;;;0.10;;
16922;SDS011;8578;50.938;13.556;2023-03-14T14:45:46;0.10;;;0.10;;
16922;SDS011;8578;50.938;13.556;2023-03-14T14:48:14;0.47;;;0.10;;
16922;SDS011;8578;50.938;13.556;2023-03-14T14:50:48;0.53;;;0.10;;
16922;SDS011;8578;50.938;13.556;2023-03-14T14:53:21;0.30;;;0.17;;
16922;SDS011;8578;50.938;13.556;2023-03-14T14:55:50;0.17;;;0.17;;
16922;SDS011;8578;50.938;13.556;2023-03-14T14:58:18;0.33;;;0.10;;
16922;SDS011;8578;50.938;13.556;2023-03-14T15:00:53;0.13;;;0.10;;
16922;SDS011;8578;50.938;13.556;2023-03-14T15:03:21;0.70;;;0.13;;
16922;SDS011;8578;50.938;13.556;2023-03-14T15:05:48;0.10;;;0.10;;
16922;SDS011;8578;50.938;13.556;2023-03-14T15:08:16;0.10;;;0.10;;
16922;SDS011;8578;50.938;13.556;2023-03-14T15:10:43;0.10;;;0.10;;
16922;SDS011;8578;50.938;13.556;2023-03-14T15:13:11;0.20;;;0.10;;
16922;SDS011;8578;50.938;13.556;2023-03-14T15:15:40;0.10;;;0.10;;
16922;SDS011;8578;50.938;13.556;2023-03-14T15:18:11;2.07;;;0.17;;
16922;SDS011;8578;50.938;13.556;2023-03-14T15:20:40;0.40;;;0.30;;